Home > Products > Valid Products > MTR

000
SAUS43 KBIS 062354
MTRN60
METAR KN60 062352Z AUTO 02011G18KT 20/02 A3003 RMK AO1 SLP166
T02000022 10222 20183 55000





000
SAUS43 KBIS 062253
MTRN60
METAR KN60 062252Z AUTO 01011G19KT 21/02 A3001 RMK AO1 PK WND
33033/2153 SLP161 T02110022





000
SAUS43 KBIS 062253
MTRN60
METAR KN60 062252Z AUTO 01011G19KT 21/02 A3001 RMK AO1 PK WND
33033/2153 SLP161 T02110022





000
SAUS43 KBIS 062154
MTRN60
METAR KN60 062152Z AUTO 34016G21KT 22/06 A3001 RMK AO1 PK WND
35026/2123 SLP160 T02170056





000
SAUS43 KBIS 062053
MTRN60
METAR KN60 062052Z AUTO 02015G23KT 20/07 A3003 RMK AO1 PK WND
36027/2027 SLP168 T02000072





000
SAUS43 KBIS 061954
MTRN60
METAR KN60 061952Z AUTO 01010G21KT 18/08 A3004 RMK AO1 SLP171
T01830083





000
SAUS43 KBIS 061853
MTRN60
METAR KN60 061852Z AUTO 02013G22KT 21/08 A3002 RMK AO1 SLP164
T02060078 $





000
SAUS43 KBIS 061853
MTRN60
METAR KN60 061852Z AUTO 02013G22KT 21/08 A3002 RMK AO1 SLP164
T02060078 $





000
SAUS43 KBIS 061653
MTRN60
METAR KN60 061652Z AUTO 36012G24KT 21/07 A2999 RMK AO1 PK WND
35030/1633 SLP150 T02060072





000
SAUS43 KBIS 061554
MTRN60
METAR KN60 061552Z AUTO 01014G24KT 20/08 A2996 RMK AO1 PK WND
35030/1453 SLP142 T02000078





000
SAUS43 KBIS 061454
MTRN60
METAR KN60 061452Z AUTO 36020G32KT 19/08 A2993 RMK AO1 PK WND
35032/1451 SLP131 T01890083 51040





000
SAUS43 KBIS 061354
MTRN60
METAR KN60 061352Z AUTO 36017G28KT 18/08 A2989 RMK AO1 PK WND
35029/1300 SLP114 T01780083





000
SAUS43 KBIS 061354
MTRN60
METAR KN60 061352Z AUTO 36017G28KT 18/08 A2989 RMK AO1 PK WND
35029/1300 SLP114 T01780083





000
SAUS43 KBIS 061254
MTRN60
METAR KN60 061252Z AUTO 36020G26KT 17/08 A2986 RMK AO1 PK WND
35026/1252 SLP103 T01670083





000
SAUS43 KBIS 061254
MTRN60
METAR KN60 061252Z AUTO 36020G26KT 17/08 A2986 RMK AO1 PK WND
35026/1252 SLP103 T01670083





000
SAUS43 KBIS 061154
MTRN60
METAR KN60 061152Z AUTO 36012KT 16/07 A2981 RMK AO1 SLP083 T01610072
10178 20106 53014





000
SAUS43 KBIS 061054
MTRN60
METAR KN60 061052Z AUTO 35008KT 13/06 A2978 RMK AO1 SLP076 T01330061





000
SAUS43 KBIS 061054
MTRN60
METAR KN60 061052Z AUTO 35008KT 13/06 A2978 RMK AO1 SLP076 T01330061





000
SAUS43 KBIS 060954
MTRN60
METAR KN60 060952Z AUTO 00000KT 13/06 A2977 RMK AO1 SLP071 T01330056





000
SAUS43 KBIS 060954
MTRN60
METAR KN60 060952Z AUTO 00000KT 13/06 A2977 RMK AO1 SLP071 T01330056





000
SAUS43 KBIS 060854
MTRN60
METAR KN60 060852Z AUTO 00000KT 13/06 A2976 RMK AO1 SLP069 T01330061
50003





000
SAUS43 KBIS 060754
MTRN60
METAR KN60 060752Z AUTO 17/06 A2978 RMK AO1 SLP072 T01670056





000
SAUS43 KBIS 060653
MTRN60
METAR KN60 060652Z AUTO 18003KT 16/04 A2976 RMK AO1 SLP067 T01560044





000
SAUS43 KBIS 060554
MTRN60
METAR KN60 060552Z AUTO 21003KT 18/04 A2975 RMK AO1 SLP065 T01780044
10300 20161 403220089 58003





000
SAUS43 KBIS 060454
MTRN60
METAR KN60 060452Z AUTO 20003KT 17/06 A2976 RMK AO1 SLP068 T01720056





000
SAUS43 KBIS 060454
MTRN60
METAR KN60 060452Z AUTO 20003KT 17/06 A2976 RMK AO1 SLP068 T01720056





000
SAUS43 KBIS 060354
MTRN60
METAR KN60 060352Z AUTO 00000KT 17/04 A2977 RMK AO1 SLP072 T01670044





000
SAUS43 KBIS 060254
MTRN60
METAR KN60 060252Z AUTO 20003KT 21/04 A2976 RMK AO1 SLP071 T02110039
53001





000
SAUS43 KBIS 060254
MTRN60
METAR KN60 060252Z AUTO 20003KT 21/04 A2976 RMK AO1 SLP071 T02110039
53001





000
SAUS43 KBIS 060154
MTRN60
METAR KN60 060152Z AUTO 19003KT 23/05 A2975 RMK AO1 SLP067 T02330050





000
SAUS43 KBIS 060054
MTRN60
METAR KN60 060052Z AUTO 19004KT 25/06 A2975 RMK AO1 SLP069 T02500056





000
SAUS43 KBIS 060054
MTRN60
METAR KN60 060052Z AUTO 19004KT 25/06 A2975 RMK AO1 SLP069 T02500056





000
SAUS43 KBIS 052354
MTRN60
METAR KN60 052352Z AUTO 20006KT 30/04 A2976 RMK AO1 SLP069 T03000044
10322 20289 56012





000
SAUS43 KBIS 052354
MTRN60
METAR KN60 052352Z AUTO 20006KT 30/04 A2976 RMK AO1 SLP069 T03000044
10322 20289 56012





000
SAUS43 KBIS 052253
MTRN60
METAR KN60 052252Z AUTO 24007KT 31/03 A2977 RMK AO1 SLP073 T03060033





000
SAUS43 KBIS 052253
MTRN60
METAR KN60 052252Z AUTO 24007KT 31/03 A2977 RMK AO1 SLP073 T03060033





000
SAUS43 KBIS 052153
MTRN60
METAR KN60 052152Z AUTO 23010KT 31/04 A2978 RMK AO1 SLP078 T03110039





000
SAUS43 KBIS 052054
MTRN60
METAR KN60 052052Z AUTO 23008KT 32/04 A2980 RMK AO1 SLP083 T03170044
56015





000
SAUS43 KBIS 051953
MTRN60
METAR KN60 051952Z AUTO 21012KT 32/04 A2981 RMK AO1 SLP087 T03170039





000
SAUS43 KBIS 051854
MTRN60
METAR KN60 051852Z AUTO 23010KT 31/06 A2982 RMK AO1 SLP091 T03060061





000
SAUS43 KBIS 051854
MTRN60
METAR KN60 051852Z AUTO 23010KT 31/06 A2982 RMK AO1 SLP091 T03060061





000
SAUS43 KBIS 051753
MTRN60
METAR KN60 051752Z AUTO 21011KT 29/07 A2985 RMK AO1 SLP100 T02940072
10294 20111 58012





000
SAUS43 KBIS 051753
MTRN60
METAR KN60 051752Z AUTO 21011KT 29/07 A2985 RMK AO1 SLP100 T02940072
10294 20111 58012





000
SAUS43 KBIS 051654
MTRN60
METAR KN60 051652Z AUTO 22009KT 27/07 A2986 RMK AO1 SLP104 T02720072





000
SAUS43 KBIS 051553
MTRN60
METAR KN60 051552Z AUTO 22010KT 25/07 A2987 RMK AO1 SLP109 T02500067





000
SAUS43 KBIS 051454
MTRN60
METAR KN60 051452Z AUTO 22010KT 21/06 A2988 RMK AO1 SLP113 T02110061
58003





000
SAUS43 KBIS 051454
MTRN60
METAR KN60 051452Z AUTO 22010KT 21/06 A2988 RMK AO1 SLP113 T02110061
58003





000
SAUS43 KBIS 051354
MTRN60
METAR KN60 051352Z AUTO 22007KT 19/07 A2989 RMK AO1 SLP116 T01890067





000
SAUS43 KBIS 051253
MTRN60
METAR KN60 051252Z AUTO 00000KT 14/07 A2989 RMK AO1 SLP116 T01440067





000
SAUS43 KBIS 051253
MTRN60
METAR KN60 051252Z AUTO 00000KT 14/07 A2989 RMK AO1 SLP116 T01440067





000
SAUS43 KBIS 051154
MTRN60
METAR KN60 051152Z AUTO 00000KT 12/06 A2989 RMK AO1 SLP116 T01170061
10128 20089 53001





000
SAUS43 KBIS 051054
MTRN60
METAR KN60 051052Z AUTO 00000KT 11/06 A2989 RMK AO1 SLP115 T01110061





000
SAUS43 KBIS 050954
MTRN60
METAR KN60 050952Z AUTO 23004KT 10/05 A2989 RMK AO1 SLP117 T01000050





000
SAUS43 KBIS 050854
MTRN60
METAR KN60 050852Z AUTO 22004KT 11/06 A2989 RMK AO1 SLP116 T01060056
58005





000
SAUS43 KBIS 050754
MTRN60
METAR KN60 050752Z AUTO 22003KT 12/06 A2990 RMK AO1 SLP119 T01220056





000
SAUS43 KBIS 050653
MTRN60
METAR KN60 050652Z AUTO 21004KT 12/06 A2990 RMK AO1 SLP121 T01220056





000
SAUS43 KBIS 050653
MTRN60
METAR KN60 050652Z AUTO 21004KT 12/06 A2990 RMK AO1 SLP121 T01220056





000
SAUS43 KBIS 050554
MTRN60
METAR KN60 050552Z AUTO 17006KT 12/06 A2990 RMK AO1 SLP123 T01170061
10272 20111 402830044 51001





000
SAUS43 KBIS 050453
MTRN60
METAR KN60 050452Z AUTO 15004KT 14/06 A2990 RMK AO1 SLP123 T01440061





000
SAUS43 KBIS 050354
MTRN60
METAR KN60 050352Z AUTO 18004KT 15/07 A2990 RMK AO1 SLP123 T01500072





000
SAUS43 KBIS 050354
MTRN60
METAR KN60 050352Z AUTO 18004KT 15/07 A2990 RMK AO1 SLP123 T01500072





000
SAUS43 KBIS 050254
MTRN60
METAR KN60 050252Z AUTO 17005KT 17/06 A2990 RMK AO1 SLP125 T01720061
55004





000
SAUS43 KBIS 050154
MTRN60
METAR KN60 050152Z AUTO 17004KT 21/05 A2989 RMK AO1 SLP122 T02110050





000
SAUS43 KBIS 050054
MTRN60
METAR KN60 050052Z AUTO 15005KT 26/06 A2990 RMK AO1 SLP121 T02610056





000
SAUS43 KBIS 042354
MTRN60
METAR KN60 042352Z AUTO 17007KT 27/04 A2991 RMK AO1 SLP128 T02720039
10283 20239 56016





000
SAUS43 KBIS 042354
MTRN60
METAR KN60 042352Z AUTO 17007KT 27/04 A2991 RMK AO1 SLP128 T02720039
10283 20239 56016





000
SAUS43 KBIS 042254
MTRN60
METAR KN60 042252Z AUTO 17007KT 28/04 A2993 RMK AO1 SLP133 T02780044





000
SAUS43 KBIS 042154
MTRN60
METAR KN60 042152Z AUTO 23008KT 28/06 A2995 RMK AO1 SLP139 T02780056





000
SAUS43 KBIS 042054
MTRN60
METAR KN60 042052Z AUTO 24010G16KT 28/05 A2997 RMK AO1 SLP145
T02780050 56021





000
SAUS43 KBIS 042054
MTRN60
METAR KN60 042052Z AUTO 24010G16KT 28/05 A2997 RMK AO1 SLP145
T02780050 56021





000
SAUS43 KBIS 041954
MTRN60
METAR KN60 041952Z AUTO 17010KT 27/04 A2998 RMK AO1 SLP152 T02670039





000
SAUS43 KBIS 041854
MTRN60
METAR KN60 041852Z AUTO 18007KT 25/03 A3000 RMK AO1 SLP158 T02500033





000
SAUS43 KBIS 041754
MTRN60
METAR KN60 041752Z AUTO 20007KT 24/03 A3003 RMK AO1 SLP168 T02390028
10239 20056 58013





000
SAUS43 KBIS 041754
MTRN60
METAR KN60 041752Z AUTO 20007KT 24/03 A3003 RMK AO1 SLP168 T02390028
10239 20056 58013





000
SAUS43 KBIS 041654
MTRN60
METAR KN60 041652Z AUTO VRB05KT 22/02 A3005 RMK AO1 SLP176 T02170022





000
SAUS43 KBIS 041554
MTRN60
METAR KN60 041552Z AUTO VRB03KT 19/01 A3006 RMK AO1 SLP179 T01890006





000
SAUS43 KBIS 041454
MTRN60
METAR KN60 041452Z AUTO 19004KT 13/01 A3007 RMK AO1 SLP187 T01330006
58007





000
SAUS43 KBIS 041354
MTRN60
METAR KN60 041352Z AUTO 16005KT 11/M01 A3009 RMK AO1 SLP190
T01111006





000
SAUS43 KBIS 041253
MTRN60
METAR KN60 041252Z AUTO 16004KT 09/01 A3010 RMK AO1 SLP193 T00890006





000
SAUS43 KBIS 041253
MTRN60
METAR KN60 041252Z AUTO 16004KT 09/01 A3010 RMK AO1 SLP193 T00890006





000
SAUS43 KBIS 041154
MTRN60
METAR KN60 041152Z AUTO 00000KT 06/01 A3010 RMK AO1 SLP193 T00560011
10106 20044 53001





000
SAUS43 KBIS 041054
MTRN60
METAR KN60 041052Z AUTO 00000KT 06/01 A3009 RMK AO1 SLP191 T00560011





000
SAUS43 KBIS 040954
MTRN60
METAR KN60 040952Z AUTO 00000KT 06/00 A3009 RMK AO1 SLP191 T00560000





000
SAUS43 KBIS 040854
MTRN60
METAR KN60 040852Z AUTO 00000KT 06/M01 A3009 RMK AO1 SLP191
T00611006 51006





000
SAUS43 KBIS 040754
MTRN60
METAR KN60 040752Z AUTO 00000KT 06/M01 A3009 RMK AO1 SLP190
T00561006





000
SAUS43 KBIS 040653
MTRN60
METAR KN60 040652Z AUTO 00000KT 09/M01 A3008 RMK AO1 SLP186
T00891011





000
SAUS43 KBIS 040653
MTRN60
METAR KN60 040652Z AUTO 00000KT 09/M01 A3008 RMK AO1 SLP186
T00891011





000
SAUS43 KBIS 040554
MTRN60
METAR KN60 040552Z AUTO 00000KT 09/M01 A3007 RMK AO1 SLP183
T00941011 10233 20083 402440033 52012





000
SAUS43 KBIS 040554
MTRN60
METAR KN60 040552Z AUTO 00000KT 09/M01 A3007 RMK AO1 SLP183
T00941011 10233 20083 402440033 52012





000
SAUS43 KBIS 040454
MTRN60
METAR KN60 040452Z AUTO 04005KT 09/00 A3006 RMK AO1 SLP179 T00940000





000
SAUS43 KBIS 040454
MTRN60
METAR KN60 040452Z AUTO 04005KT 09/00 A3006 RMK AO1 SLP179 T00940000





000
SAUS43 KBIS 040354
MTRN60
METAR KN60 040352Z AUTO 02003KT 11/00 A3005 RMK AO1 SLP174 T01110000





000
SAUS43 KBIS 040253
MTRN60
METAR KN60 040252Z AUTO 03003KT 13/00 A3003 RMK AO1 SLP169 T01280000
53011





000
SAUS43 KBIS 040253
MTRN60
METAR KN60 040252Z AUTO 03003KT 13/00 A3003 RMK AO1 SLP169 T01280000
53011





000
SAUS43 KBIS 040154
MTRN60
METAR KN60 040152Z AUTO 03007KT 18/M01 A3002 RMK AO1 SLP165
T01831011





000
SAUS43 KBIS 040053
MTRN60
METAR KN60 040052Z AUTO 03009G17KT 22/M01 A3001 RMK AO1 SLP163
T02171011





000
SAUS43 KBIS 040053
MTRN60
METAR KN60 040052Z AUTO 03009G17KT 22/M01 A3001 RMK AO1 SLP163
T02171011





    US Dept of Commerce
    National Oceanic and Atmospheric Administration
    National Weather Service
    1325 East West Highway
    Silver Spring, MD 20910
    Page Author: NWS Internet Services Team
Disclaimer
Information Quality
Credits
Glossary
Privacy Policy
Freedom of Information Act (FOIA)
About Us
Career Opportunities